createdAt,value
2022-12-17T00:06:40.850Z,4463.72291
2022-12-17T00:21:43.058Z,3858.21454
2022-12-17T00:36:45.274Z,3413.752
2022-12-17T00:51:47.496Z,3321.59673
2022-12-17T01:06:49.702Z,3377.08879
2022-12-17T01:21:51.897Z,3522.09134
2022-12-17T01:36:54.165Z,3483.07741
2022-12-17T01:51:56.381Z,3555.27687
2022-12-17T02:06:58.621Z,3557.51149
2022-12-17T02:22:00.855Z,3656.33124
2022-12-17T02:37:03.027Z,3788.48778
2022-12-17T02:52:05.215Z,3969.14496
2022-12-17T03:07:07.453Z,4164.82758
2022-12-17T03:22:09.717Z,4343.82246
2022-12-17T03:37:11.879Z,4631.75174
2022-12-17T03:52:14.108Z,4862.54348
2022-12-17T04:07:16.482Z,5094.50998
2022-12-17T04:22:18.707Z,5620.65596
2022-12-17T04:37:20.908Z,5799.18088
2022-12-17T04:52:23.190Z,5787.32162
2022-12-17T05:07:25.440Z,5637.45075
2022-12-17T05:22:27.637Z,5835.0521
2022-12-17T05:37:29.905Z,6206.14082
2022-12-17T05:52:32.299Z,6236.91507
2022-12-17T06:07:34.503Z,6464.87769
2022-12-17T06:22:36.702Z,6766.28858
2022-12-17T06:37:38.990Z,7146.46513
2022-12-17T06:52:41.196Z,7526.59624
2022-12-17T07:07:43.405Z,8232.72778
2022-12-17T07:22:45.627Z,8614.9168
2022-12-17T07:37:47.860Z,8864.52675
2022-12-17T07:52:50.077Z,9034.31816
2022-12-17T08:07:52.420Z,8984.12751
2022-12-17T08:22:54.647Z,9248.36654
2022-12-17T08:37:56.838Z,9263.50299
2022-12-17T08:52:59.091Z,9347.64711
2022-12-17T09:08:01.319Z,9355.37244
2022-12-17T09:23:03.522Z,9609.50818
2022-12-17T09:38:05.766Z,9593.22088
2022-12-17T09:53:07.982Z,9700.08623
2022-12-17T10:08:10.173Z,9792.38809
2022-12-17T10:23:12.673Z,9741.82499
2022-12-17T10:38:14.910Z,9843.47881
2022-12-17T10:53:17.134Z,10328.46772
2022-12-17T11:08:19.349Z,10272.23287
2022-12-17T11:23:21.599Z,10319.05252
2022-12-17T11:38:23.797Z,10404.41233
2022-12-17T11:53:27.999Z,10442.805
2022-12-17T12:08:30.694Z,10530.23313
2022-12-17T12:23:33.132Z,10404.41233
2022-12-17T12:38:35.709Z,10990.29185
2022-12-17T12:53:38.139Z,11033.13899
2022-12-17T13:08:40.572Z,11331.33193
2022-12-17T13:23:43.000Z,11791.66729
2022-12-17T13:38:45.219Z,11978.83661
2022-12-17T13:53:47.407Z,11388.33058
2022-12-17T14:08:49.647Z,10609.1852
2022-12-17T14:23:51.869Z,10080.14303
2022-12-17T14:38:54.558Z,9218.24157
2022-12-17T14:53:57.302Z,9278.68906
2022-12-17T15:08:59.511Z,9278.68906
2022-12-17T15:24:01.833Z,8595.29284
2022-12-17T15:39:04.071Z,8293.0408
2022-12-17T15:54:06.352Z,8397.62662
2022-12-17T16:09:08.577Z,7966.22147
2022-12-17T16:24:10.808Z,7711.17216
2022-12-17T16:39:13.037Z,7690.21788
2022-12-17T16:54:15.258Z,6852.30072
2022-12-17T17:09:17.538Z,6585.22444
2022-12-17T17:24:21.697Z,6464.87769
2022-12-17T17:39:24.855Z,6774.38707
2022-12-17T17:54:27.076Z,6288.88936
2022-12-17T18:09:29.508Z,5620.65596
2022-12-17T18:24:31.733Z,5643.07134
2022-12-17T18:39:33.876Z,5035.58772
2022-12-17T18:54:36.119Z,4938.9185
2022-12-17T19:09:38.373Z,5359.84902
2022-12-17T19:24:40.602Z,5603.96094
2022-12-17T19:39:42.826Z,5660.00055
2022-12-17T19:54:45.045Z,5823.04582
2022-12-17T20:09:47.258Z,6199.3433
2022-12-17T20:24:49.492Z,5817.06119
2022-12-17T20:39:51.702Z,5799.18088
2022-12-17T20:54:53.980Z,6600.58357
2022-12-17T21:09:56.352Z,6889.83615
2022-12-17T21:24:58.548Z,7039.80148
2022-12-17T21:40:00.912Z,7501.65722
2022-12-17T21:55:03.093Z,7684.9971
2022-12-17T22:10:26.253Z,8173.2857
2022-12-17T22:25:43.796Z,9106.99972
2022-12-17T22:44:29.346Z,10179.85667
2022-12-17T22:59:49.802Z,10719.69755
2022-12-17T23:14:52.009Z,10822.18031
2022-12-17T23:29:54.277Z,10968.99284
2022-12-17T23:44:56.461Z,10669.1806
2022-12-17T23:59:58.638Z,10530.23313
